Time;durP1;ratioP1;P1;durP2;ratioP2;P2;SDS_P1;SDS_P2;PMS_P1;PMS_P2;Temp;Humidity;BMP_temperature;BMP_pressure;BME280_temperature;BME280_humidity;BME280_pressure;Samples;Min_cycle;Max_cycle;Signal;HPM_P1;HPM_P2
2023/02/20 00:01:34;;;;;;;0.00;0.00;;;;;;;7.99;46.97;100572.47;4179960;34;32357;-84
2023/02/20 00:04:02;;;;;;;0.00;0.00;;;;;;;7.62;48.18;100586.31;4202472;33;33178;-84
2023/02/20 00:06:29;;;;;;;1.40;1.15;;;;;;;7.94;46.74;100588.34;4258089;33;32369;-84
2023/02/20 00:08:57;;;;;;;0.10;0.10;;;;;;;8.00;45.76;100600.47;4216203;33;33864;-84
2023/02/20 00:11:25;;;;;;;0.00;0.00;;;;;;;7.65;47.49;100604.69;4228358;33;32736;-84
2023/02/20 00:13:52;;;;;;;0.00;0.00;;;;;;;8.02;45.42;100606.56;4226641;33;33346;-84
2023/02/20 00:16:20;;;;;;;0.00;0.00;;;;;;;7.96;45.79;100610.19;4268608;33;34187;-83
2023/02/20 00:18:47;;;;;;;0.10;0.10;;;;;;;8.25;44.43;100598.19;4206975;33;33703;-86
2023/02/20 00:21:15;;;;;;;0.28;0.28;;;;;;;7.76;46.85;100612.34;4263670;33;33581;-85
2023/02/20 00:23:43;;;;;;;0.00;0.00;;;;;;;7.71;47.40;100609.81;4222218;33;33597;-85
2023/02/20 00:26:13;;;;;;;3.00;1.33;;;;;;;7.59;47.13;100607.41;4231520;33;34475;-85
2023/02/20 00:28:42;;;;;;;0.08;0.08;;;;;;;8.07;45.97;100610.88;4200046;34;35262;-85
2023/02/20 00:31:13;;;;;;;0.00;0.00;;;;;;;7.72;47.36;100611.53;4181038;34;33140;-85
2023/02/20 00:33:41;;;;;;;0.00;0.00;;;;;;;8.05;47.29;100615.28;4177547;34;34695;-85
2023/02/20 00:36:17;;;;;;;0.32;0.32;;;;;;;8.14;47.13;100615.06;4178972;34;32763;-85
2023/02/20 00:38:45;;;;;;;0.00;0.00;;;;;;;7.68;49.19;100631.75;4160221;34;32154;-85
2023/02/20 00:41:14;;;;;;;0.00;0.00;;;;;;;8.03;47.74;100634.63;4199471;33;33298;-85
2023/02/20 00:43:42;;;;;;;0.85;0.28;;;;;;;8.22;46.98;100646.50;4186780;34;35568;-86
2023/02/20 00:46:13;;;;;;;0.32;0.32;;;;;;;7.99;48.34;100648.72;4214160;33;33759;-85
2023/02/20 00:48:42;;;;;;;0.20;0.20;;;;;;;7.89;48.33;100653.31;4245425;33;33566;-85
2023/02/20 00:51:25;;;;;;;0.13;0.13;;;;;;;7.80;49.28;100656.97;4213145;33;34606;-86
2023/02/20 00:53:53;;;;;;;0.08;0.08;;;;;;;7.54;49.42;100665.31;4191675;34;32974;-85
2023/02/20 00:56:21;;;;;;;0.00;0.00;;;;;;;7.64;49.10;100672.16;4192235;34;33584;-83
2023/02/20 00:58:48;;;;;;;0.00;0.00;;;;;;;7.50;49.94;100668.91;4205889;33;32445;-85
2023/02/20 01:01:16;;;;;;;0.00;0.00;;;;;;;7.71;49.36;100678.16;4243714;33;33327;-85
2023/02/20 01:03:44;;;;;;;0.00;0.00;;;;;;;7.77;49.57;100680.66;4253889;33;33099;-85
2023/02/20 01:06:11;;;;;;;5.30;1.25;;;;;;;7.84;49.58;100678.81;4259887;33;33275;-85
2023/02/20 01:08:39;;;;;;;0.17;0.17;;;;;;;7.80;50.13;100677.13;4262976;33;33324;-85
2023/02/20 01:11:07;;;;;;;0.00;0.00;;;;;;;7.68;50.57;100684.31;4259002;33;33610;-85
2023/02/20 01:13:35;;;;;;;0.40;0.30;;;;;;;7.66;50.89;100685.25;4264284;33;34712;-85
2023/02/20 01:16:05;;;;;;;0.00;0.00;;;;;;;7.50;51.52;100681.16;4262210;33;33599;-85
2023/02/20 01:18:33;;;;;;;0.25;0.25;;;;;;;7.64;51.04;100676.53;4231189;33;32838;-84
2023/02/20 01:21:02;;;;;;;0.47;0.30;;;;;;;7.25;52.46;100688.56;4230724;33;34301;-86
2023/02/20 01:23:30;;;;;;;0.00;0.00;;;;;;;7.40;51.81;100688.31;4230431;33;34148;-85
2023/02/20 01:25:57;;;;;;;0.00;0.00;;;;;;;7.57;51.47;100693.31;4260379;33;33916;-86
2023/02/20 01:28:25;;;;;;;0.10;0.10;;;;;;;7.39;51.76;100691.84;4235663;33;32554;-85
2023/02/20 01:30:53;;;;;;;0.03;0.03;;;;;;;7.36;52.12;100698.03;4253276;33;33872;-86
2023/02/20 01:33:20;;;;;;;0.00;0.00;;;;;;;7.30;52.29;100686.75;4207771;33;34696;-86
2023/02/20 01:35:48;;;;;;;0.20;0.20;;;;;;;7.44;51.84;100700.53;4213984;33;33416;-85
2023/02/20 01:38:16;;;;;;;0.00;0.00;;;;;;;7.44;51.69;100700.53;4217652;33;31905;-85
2023/02/20 01:40:48;;;;;;;0.20;0.20;;;;;;;7.43;51.62;100699.66;4223289;33;33577;-83
2023/02/20 01:43:16;;;;;;;;;;;;;;;7.32;51.85;100704.22;4167191;34;34030;-84
2023/02/20 01:45:43;;;;;;;0.00;0.00;;;;;;;7.35;51.45;100701.53;4150342;34;33563;-83
2023/02/20 01:48:22;;;;;;;0.00;0.00;;;;;;;7.24;51.84;100713.97;4159594;34;33805;-83
2023/02/20 01:50:54;;;;;;;0.10;0.10;;;;;;;7.03;52.42;100712.56;4132197;34;34663;-83
2023/02/20 01:53:24;;;;;;;0.03;0.03;;;;;;;7.00;52.41;100720.47;4132855;34;33427;-84
2023/02/20 01:56:04;;;;;;;0.00;0.00;;;;;;;6.84;52.95;100714.56;4192170;33;34090;-83
2023/02/20 01:58:39;;;;;;;0.20;0.20;;;;;;;6.61;53.54;100714.00;4224829;33;32719;-84
2023/02/20 02:01:09;;;;;;;0.98;0.98;;;;;;;6.53;53.92;100726.34;4218638;33;32792;-84
2023/02/20 02:03:40;;;;;;;2.10;0.57;;;;;;;6.35;54.23;100730.91;4199272;33;34821;-84
2023/02/20 02:06:24;;;;;;;1.20;0.90;;;;;;;6.51;53.90;100730.75;4144098;34;31943;-85
2023/02/20 02:08:52;;;;;;;0.20;0.20;;;;;;;6.19;54.41;100726.75;4186943;34;33435;-84
2023/02/20 02:11:22;;;;;;;0.00;0.00;;;;;;;6.46;53.80;100717.69;4244262;33;34061;-84
2023/02/20 02:13:51;;;;;;;0.32;0.32;;;;;;;6.49;53.61;100711.53;4230930;33;35003;-84
2023/02/20 02:16:46;;;;;;;0.00;0.00;;;;;;;6.46;53.69;100720.31;4186199;34;33827;-85
2023/02/20 02:19:49;;;;;;;0.10;0.10;;;;;;;6.51;53.75;100720.25;4209985;33;34103;-84
2023/02/20 02:22:45;;;;;;;1.37;0.47;;;;;;;6.28;54.38;100729.28;4221115;33;33153;-84
2023/02/20 02:25:22;;;;;;;2.75;2.30;;;;;;;6.30;54.09;100717.00;4198902;33;33279;-84
2023/02/20 02:28:07;;;;;;;0.65;0.15;;;;;;;6.33;53.91;100719.59;4117190;34;32768;-84
2023/02/20 02:31:06;;;;;;;0.03;0.03;;;;;;;6.36;53.97;100724.81;4133978;34;34279;-84
2023/02/20 02:33:34;;;;;;;0.00;0.00;;;;;;;6.44;53.59;100726.47;4166767;33;34302;-84
2023/02/20 02:36:15;;;;;;;1.02;0.95;;;;;;;6.43;53.67;100730.84;4171347;34;34416;-85
2023/02/20 02:38:56;;;;;;;0.55;0.55;;;;;;;6.30;53.78;100732.72;4172205;34;34088;-84
2023/02/20 02:41:23;;;;;;;0.43;0.43;;;;;;;6.13;54.58;100739.94;4127704;34;33968;-85
2023/02/20 02:43:56;;;;;;;0.25;0.25;;;;;;;6.33;53.97;100727.47;4203634;33;32531;-84
2023/02/20 02:46:46;;;;;;;0.00;0.00;;;;;;;6.24;54.26;100748.53;4172304;34;32565;-84
2023/02/20 02:49:35;;;;;;;0.10;0.10;;;;;;;6.24;54.47;100742.44;4169119;34;32803;-84
2023/02/20 02:52:03;;;;;;;0.10;0.10;;;;;;;6.12;54.98;100739.06;4190163;33;31867;-84
2023/02/20 02:54:31;;;;;;;0.10;0.10;;;;;;;6.14;54.89;100744.28;4184640;34;33315;-86
2023/02/20 02:57:22;;;;;;;0.45;0.45;;;;;;;6.01;55.29;100751.41;4185020;34;33717;-86
2023/02/20 03:00:07;;;;;;;0.00;0.00;;;;;;;6.04;55.09;100755.75;4155135;34;33875;-86
2023/02/20 03:02:49;;;;;;;0.03;0.03;;;;;;;5.95;55.58;100761.94;4163376;33;32702;-86
2023/02/20 03:05:19;;;;;;;0.00;0.00;;;;;;;6.13;54.86;100760.91;4166760;33;32814;-86
2023/02/20 03:08:00;;;;;;;0.00;0.00;;;;;;;6.22;54.90;100770.41;4165809;34;32771;-86
2023/02/20 03:10:43;;;;;;;0.25;0.25;;;;;;;6.60;53.26;100777.88;4173556;34;33156;-86
2023/02/20 03:13:11;;;;;;;0.00;0.00;;;;;;;6.40;53.49;100778.09;4188642;33;33931;-86
2023/02/20 03:15:42;;;;;;;0.00;0.00;;;;;;;6.35;53.75;100772.87;4184665;34;32477;-86
2023/02/20 03:18:37;;;;;;;0.00;0.00;;;;;;;6.45;53.73;100764.91;4200546;33;32389;-85
2023/02/20 03:21:11;;;;;;;0.00;0.00;;;;;;;6.45;53.60;100757.03;4162690;34;33631;-86
2023/02/20 03:23:42;;;;;;;0.10;0.10;;;;;;;6.29;53.76;100757.22;4136380;34;33970;-86
2023/02/20 03:26:18;;;;;;;0.62;0.62;;;;;;;6.32;53.84;100751.97;4162179;34;33257;-86
2023/02/20 03:28:50;;;;;;;0.10;0.10;;;;;;;6.15;54.21;100752.13;4150490;34;32931;-83
2023/02/20 03:31:38;;;;;;;0.20;0.20;;;;;;;6.26;53.80;100743.28;4154296;34;35416;-83
2023/02/20 03:45:48;;;;;;;0.00;0.00;;;;;;;6.18;54.13;100771.34;4178007;33;33658;-84
2023/02/20 03:48:32;;;;;;;0.00;0.00;;;;;;;6.15;54.74;100780.97;4159343;34;32306;-85
2023/02/20 03:51:01;;;;;;;0.00;0.00;;;;;;;6.10;54.53;100774.03;4098822;34;34184;-85
2023/02/20 03:53:30;;;;;;;0.00;0.00;;;;;;;6.13;54.82;100768.78;4101114;34;34366;-85
2023/02/20 03:56:01;;;;;;;0.00;0.00;;;;;;;6.08;54.94;100788.94;4141167;34;33520;-83
2023/02/20 03:58:30;;;;;;;0.00;0.00;;;;;;;6.15;54.80;100775.72;4144610;34;33137;-83
2023/02/20 04:00:59;;;;;;;0.30;0.28;;;;;;;6.28;54.48;100784.34;4161786;33;33697;-84
2023/02/20 04:03:32;;;;;;;0.00;0.00;;;;;;;6.25;54.36;100768.63;4193656;33;34868;-84
2023/02/20 04:06:01;;;;;;;0.25;0.03;;;;;;;6.30;54.35;100769.44;4228227;33;32603;-83
2023/02/20 04:08:38;;;;;;;0.00;0.00;;;;;;;6.31;54.28;100771.19;4206430;33;34313;-83
2023/02/20 04:11:10;;;;;;;0.00;0.00;;;;;;;6.27;54.26;100768.63;4201689;33;34079;-83
2023/02/20 04:13:39;;;;;;;0.10;0.10;;;;;;;6.43;53.84;100767.56;4184866;34;33322;-83
2023/02/20 04:16:08;;;;;;;0.10;0.10;;;;;;;6.39;53.96;100761.47;4214456;33;33228;-84
2023/02/20 04:18:36;;;;;;;0.00;0.00;;;;;;;6.41;54.17;100771.97;4223376;33;32450;-83
2023/02/20 04:21:10;;;;;;;0.75;0.20;;;;;;;6.26;54.50;100767.75;4210634;33;33225;-85
2023/02/20 04:23:41;;;;;;;0.00;0.00;;;;;;;6.16;54.91;100766.09;4213543;33;33852;-84
2023/02/20 04:26:15;;;;;;;0.47;0.47;;;;;;;6.30;54.45;100779.94;4194087;34;33894;-84
2023/02/20 04:28:43;;;;;;;0.00;0.00;;;;;;;6.21;54.64;100773.91;4184454;34;33748;-84
2023/02/20 04:31:15;;;;;;;0.03;0.03;;;;;;;6.05;55.11;100773.22;4173932;34;35300;-83
2023/02/20 04:33:42;;;;;;;0.00;0.00;;;;;;;6.06;55.27;100782.81;4198334;33;34406;-83
2023/02/20 04:36:25;;;;;;;0.00;0.00;;;;;;;6.10;55.16;100787.16;4180685;34;33507;-84
2023/02/20 04:38:54;;;;;;;0.00;0.00;;;;;;;6.17;55.07;100794.06;4185613;34;33634;-84
2023/02/20 04:41:22;;;;;;;0.28;0.28;;;;;;;6.21;55.09;100795.78;4187099;34;34513;-84
2023/02/20 04:44:29;;;;;;;0.10;0.10;;;;;;;6.33;54.77;100786.94;4189030;34;32071;-84
2023/02/20 04:46:37;;;;;;;0.10;0.10;;;;;;;6.30;54.85;100776.44;4145554;34;33492;-84
2023/02/20 04:49:05;;;;;;;0.00;0.00;;;;;;;6.22;55.28;100762.53;4182722;34;33815;-84
2023/02/20 04:51:33;;;;;;;0.00;0.00;;;;;;;6.37;54.86;100758.03;4211455;33;34054;-84
2023/02/20 04:54:00;;;;;;;0.00;0.00;;;;;;;6.33;55.02;100747.59;4215557;33;33414;-83
2023/02/20 04:56:28;;;;;;;3.03;0.85;;;;;;;6.26;55.34;100744.12;4192832;33;32970;-84
2023/02/20 04:58:56;;;;;;;0.00;0.00;;;;;;;6.38;55.11;100744.00;4148450;34;32198;-84
2023/02/20 05:01:24;;;;;;;0.00;0.00;;;;;;;6.38;55.12;100730.91;4181417;33;33766;-84
2023/02/20 05:03:51;;;;;;;0.77;0.52;;;;;;;6.26;55.28;100725.78;4192456;34;34141;-84
2023/02/20 05:06:19;;;;;;;4.43;1.08;;;;;;;6.23;55.59;100719.72;4202747;33;32534;-85
2023/02/20 05:08:47;;;;;;;1.00;0.47;;;;;;;6.35;55.44;100728.28;4205513;33;33648;-84
2023/02/20 05:11:16;;;;;;;0.47;0.47;;;;;;;6.31;55.58;100731.84;4218826;33;34506;-85
2023/02/20 05:13:44;;;;;;;0.20;0.20;;;;;;;6.33;55.70;100740.56;4213407;33;32837;-85
2023/02/20 05:16:12;;;;;;;0.10;0.10;;;;;;;6.13;56.34;100750.41;4188083;34;32882;-85
2023/02/20 05:18:41;;;;;;;0.00;0.00;;;;;;;6.14;56.58;100760.03;4158453;34;34827;-84
2023/02/20 05:23:59;;;;;;;0.30;0.30;;;;;;;6.24;56.18;100758.16;4176934;34;33183;-85
2023/02/20 05:26:27;;;;;;;0.25;0.25;;;;;;;6.22;56.28;100755.56;4187713;33;32874;-85
2023/02/20 05:28:54;;;;;;;0.10;0.10;;;;;;;6.21;56.34;100766.91;4164567;34;34655;-85
2023/02/20 05:31:22;;;;;;;0.20;0.20;;;;;;;6.32;56.11;100761.59;4145658;34;33826;-85
2023/02/20 05:33:50;;;;;;;0.40;0.40;;;;;;;6.40;55.92;100759.72;4172116;34;34195;-85
2023/02/20 05:36:17;;;;;;;0.00;0.00;;;;;;;6.32;56.33;100765.06;4197823;33;33019;-85
2023/02/20 05:38:47;;;;;;;0.10;0.10;;;;;;;6.53;55.61;100763.94;4237637;33;34681;-86
2023/02/20 05:41:16;;;;;;;17.85;1.50;;;;;;;6.27;56.33;100758.16;4183737;34;33006;-86
2023/02/20 05:43:44;;;;;;;0.32;0.32;;;;;;;6.64;55.18;100754.19;4217736;33;34418;-84
2023/02/20 05:46:12;;;;;;;0.43;0.08;;;;;;;6.40;55.86;100754.47;4218824;33;32983;-86
2023/02/20 05:48:40;;;;;;;0.70;0.57;;;;;;;6.28;56.25;100758.13;4209186;33;32890;-84
2023/02/20 05:51:08;;;;;;;0.20;0.20;;;;;;;6.17;56.92;100757.34;4195098;34;34906;-85
2023/02/20 05:53:35;;;;;;;0.03;0.03;;;;;;;6.29;56.93;100759.84;4168064;34;32771;-84
2023/02/20 05:56:03;;;;;;;0.00;0.00;;;;;;;6.37;55.94;100763.25;4133412;34;34198;-85
2023/02/20 05:58:45;;;;;;;0.00;0.00;;;;;;;6.21;56.72;100761.69;4140059;33;31164;-85
2023/02/20 06:01:16;;;;;;;0.00;0.00;;;;;;;6.21;56.80;100776.53;4152796;34;33458;-85
2023/02/20 06:03:44;;;;;;;0.37;0.37;;;;;;;6.53;55.87;100769.19;4131486;34;33083;-84
2023/02/20 06:06:41;;;;;;;0.00;0.00;;;;;;;6.30;56.23;100777.31;4166618;33;33883;-84
2023/02/20 06:09:22;;;;;;;0.95;0.75;;;;;;;6.20;56.74;100780.06;4120978;34;33197;-84
2023/02/20 06:11:53;;;;;;;0.00;0.00;;;;;;;6.26;56.75;100786.09;4137192;34;32890;-84
2023/02/20 06:14:34;;;;;;;0.30;0.30;;;;;;;6.41;56.58;100793.84;4143566;34;35211;-84
2023/02/20 06:17:31;;;;;;;0.17;0.17;;;;;;;6.33;56.88;100798.28;4127463;34;34317;-84
2023/02/20 06:19:59;;;;;;;0.00;0.00;;;;;;;6.43;56.55;100804.31;4176946;33;32762;-84
2023/02/20 06:22:41;;;;;;;0.70;0.70;;;;;;;6.81;54.94;100797.75;4168091;34;33938;-84
2023/02/20 06:25:09;;;;;;;0.10;0.10;;;;;;;6.61;55.54;100800.59;4192668;33;32048;-84
2023/02/20 06:27:39;;;;;;;0.60;0.60;;;;;;;6.69;55.66;100798.75;4182587;34;33527;-84
2023/02/20 06:30:08;;;;;;;2.08;1.85;;;;;;;6.45;56.64;100796.41;4182765;33;35985;-84
2023/02/20 06:32:36;;;;;;;0.03;0.03;;;;;;;6.33;55.25;100808.78;4143096;34;34652;-83
2023/02/20 06:35:04;;;;;;;0.20;0.20;;;;;;;6.50;55.82;100798.09;4166052;34;34330;-86
2023/02/20 06:37:32;;;;;;;0.00;0.00;;;;;;;6.85;54.94;100789.81;4168023;34;33406;-86
2023/02/20 06:40:04;;;;;;;0.30;0.30;;;;;;;6.44;56.72;100795.53;4195185;33;34252;-85
2023/02/20 06:42:32;;;;;;;0.90;0.55;;;;;;;6.93;55.11;100803.72;4181118;34;34176;-85
2023/02/20 06:45:00;;;;;;;0.00;0.00;;;;;;;7.12;54.51;100803.44;4227070;33;33840;-85
2023/02/20 06:47:28;;;;;;;0.00;0.00;;;;;;;6.81;55.50;100795.12;4227163;33;32324;-85
2023/02/20 06:49:56;;;;;;;3.30;1.10;;;;;;;7.11;54.25;100813.09;4180578;34;32826;-85
2023/02/20 06:52:24;;;;;;;0.00;0.00;;;;;;;6.91;55.29;100810.72;4221869;33;32786;-84
2023/02/20 06:54:53;;;;;;;0.20;0.20;;;;;;;7.13;54.76;100806.06;4227440;33;34080;-86
2023/02/20 06:57:20;;;;;;;0.10;0.10;;;;;;;7.53;52.83;100794.97;4205225;33;33029;-85
2023/02/20 06:59:48;;;;;;;0.00;0.00;;;;;;;7.25;53.83;100794.50;4164800;34;34662;-86
2023/02/20 07:02:17;;;;;;;0.75;0.62;;;;;;;7.60;52.39;100801.03;4133482;34;33940;-85
2023/02/20 07:04:48;;;;;;;0.28;0.28;;;;;;;7.71;51.58;100809.59;4193045;34;32678;-86
2023/02/20 07:07:16;;;;;;;0.00;0.00;;;;;;;7.38;52.47;100806.59;4185657;34;32521;-82
2023/02/20 07:09:43;;;;;;;0.00;0.00;;;;;;;7.40;52.96;100807.41;4207450;33;33943;-86
2023/02/20 07:12:11;;;;;;;0.10;0.10;;;;;;;7.50;52.30;100812.53;4169010;34;32690;-86
2023/02/20 07:14:39;;;;;;;0.00;0.00;;;;;;;7.29;52.09;100809.34;4180303;34;33145;-84
2023/02/20 07:17:06;;;;;;;1.55;0.47;;;;;;;7.51;51.57;100806.44;4182858;33;34272;-84
2023/02/20 07:19:34;;;;;;;0.00;0.00;;;;;;;7.59;51.82;100796.63;4184031;34;32519;-85
2023/02/20 07:22:02;;;;;;;0.00;0.00;;;;;;;7.53;50.59;100797.59;4195113;33;32523;-85
2023/02/20 07:24:51;;;;;;;0.00;0.00;;;;;;;7.93;50.91;100789.09;4497393;31;152629;-85
2023/02/20 07:27:19;;;;;;;0.03;0.03;;;;;;;7.93;50.91;100789.09;4479468;31;33422;-85
2023/02/20 07:29:48;;;;;;;0.00;0.00;;;;;;;7.56;51.42;100794.06;4494264;31;33579;-84
2023/02/20 07:32:22;;;;;;;0.00;0.00;;;;;;;7.75;51.16;100789.41;4487044;31;33081;-87
2023/02/20 07:34:50;;;;;;;1.25;0.73;;;;;;;7.77;50.67;100779.72;4480623;31;34206;-84
2023/02/20 07:37:31;;;;;;;0.00;0.00;;;;;;;7.54;51.32;100790.59;4495736;31;33376;-88
2023/02/20 07:39:59;;;;;;;0.00;0.00;;;;;;;7.82;50.41;100780.50;4475297;31;34230;-91
2023/02/20 07:42:27;;;;;;;0.68;0.68;;;;;;;7.55;50.89;100784.44;4479409;31;31855;-88
2023/02/20 07:44:57;;;;;;;0.10;0.10;;;;;;;7.77;51.02;100798.97;4483958;31;32819;-85
2023/02/20 07:47:25;;;;;;;0.15;0.15;;;;;;;7.71;51.91;100804.34;4483963;31;32778;-85
2023/02/20 07:49:52;;;;;;;0.00;0.00;;;;;;;8.10;51.20;100799.31;4481885;31;33888;-86
2023/02/20 07:52:20;;;;;;;0.22;0.17;;;;;;;8.16;51.10;100802.69;4486633;31;33374;-85
2023/02/20 07:54:48;;;;;;;1.75;0.80;;;;;;;7.84;52.08;100792.75;4482492;31;32693;-85
2023/02/20 07:57:15;;;;;;;0.17;0.17;;;;;;;7.99;52.28;100783.72;4496449;31;33325;-85
2023/02/20 07:59:43;;;;;;;0.00;0.00;;;;;;;7.84;53.30;100790.13;4497196;31;31954;-86
2023/02/20 08:02:11;;;;;;;0.30;0.30;;;;;;;7.72;52.81;100781.56;4471237;31;34454;-84
2023/02/20 08:04:39;;;;;;;0.00;0.00;;;;;;;8.00;53.00;100781.94;4485102;31;32547;-84
2023/02/20 08:07:06;;;;;;;0.00;0.00;;;;;;;8.08;53.35;100774.81;4498981;31;34085;-84
2023/02/20 08:09:34;;;;;;;0.00;0.00;;;;;;;8.37;53.83;100790.94;4472202;31;32835;-84
2023/02/20 08:12:02;;;;;;;0.00;0.00;;;;;;;8.44;53.99;100797.81;4481572;31;34646;-84
2023/02/20 08:14:30;;;;;;;0.00;0.00;;;;;;;8.48;54.66;100803.03;4494924;31;33440;-84
2023/02/20 08:16:58;;;;;;;0.88;0.25;;;;;;;8.63;54.36;100808.00;4496289;31;32875;-84
2023/02/20 08:19:25;;;;;;;0.32;0.32;;;;;;;8.38;56.37;100808.47;4470137;31;33097;-86
2023/02/20 08:21:53;;;;;;;0.00;0.00;;;;;;;8.36;56.84;100810.28;4474015;31;33090;-85
2023/02/20 08:24:21;;;;;;;0.55;0.55;;;;;;;8.42;56.67;100798.75;4488097;31;33025;-86
2023/02/20 08:26:49;;;;;;;0.85;0.52;;;;;;;8.11;58.11;100798.41;4496227;31;30519;-85
2023/02/20 08:29:16;;;;;;;0.75;0.60;;;;;;;8.25;57.79;100796.41;4480761;31;34023;-86
2023/02/20 08:31:44;;;;;;;0.00;0.00;;;;;;;8.25;58.39;100801.66;4473599;31;32518;-86
2023/02/20 08:34:12;;;;;;;0.00;0.00;;;;;;;8.18;58.77;100798.28;4494677;31;33706;-86
2023/02/20 08:36:40;;;;;;;6.35;0.25;;;;;;;8.41;58.00;100790.00;4470894;31;34085;-85
2023/02/20 08:39:08;;;;;;;0.00;0.00;;;;;;;8.28;58.42;100780.56;4466533;31;34877;-85
2023/02/20 08:41:44;;;;;;;0.35;0.35;;;;;;;8.37;58.17;100785.69;4474477;31;33939;-85
2023/02/20 08:44:12;;;;;;;0.15;0.10;;;;;;;8.28;58.89;100784.97;4466803;31;32843;-86
2023/02/20 08:46:50;;;;;;;0.00;0.00;;;;;;;7.91;60.47;100783.84;4472595;31;32154;-85
2023/02/20 08:49:18;;;;;;;2.55;0.93;;;;;;;8.34;58.94;100784.84;4471547;31;31842;-86
2023/02/20 08:51:54;;;;;;;0.52;0.52;;;;;;;8.48;58.85;100772.31;4468737;31;33067;-85
2023/02/20 08:54:21;;;;;;;0.00;0.00;;;;;;;8.33;58.95;100773.44;4486941;31;33041;-86
2023/02/20 08:56:49;;;;;;;0.10;0.10;;;;;;;8.48;58.44;100766.19;4479916;31;32820;-85
2023/02/20 08:59:16;;;;;;;0.95;0.68;;;;;;;8.01;58.92;100765.28;4472600;31;33690;-87
2023/02/20 09:01:44;;;;;;;0.32;0.32;;;;;;;8.30;58.23;100768.22;4463426;31;33275;-87
2023/02/20 09:04:12;;;;;;;0.00;0.00;;;;;;;8.64;57.95;100746.53;4474266;31;34483;-85
2023/02/20 09:06:39;;;;;;;0.00;0.00;;;;;;;8.32;58.44;100755.94;4477908;31;33676;-87
2023/02/20 09:09:07;;;;;;;0.00;0.00;;;;;;;8.60;57.46;100753.66;4477133;31;32876;-88
2023/02/20 09:11:35;;;;;;;0.20;0.20;;;;;;;8.80;57.22;100750.59;4473549;31;31961;-85
2023/02/20 09:14:02;;;;;;;0.62;0.62;;;;;;;9.21;56.37;100746.19;4462744;31;32104;-84
2023/02/20 09:16:30;;;;;;;0.32;0.32;;;;;;;9.12;56.86;100746.41;4472243;31;33303;-84
2023/02/20 09:18:59;;;;;;;0.15;0.15;;;;;;;9.01;56.39;100743.13;4485839;31;33992;-85
2023/02/20 09:21:29;;;;;;;0.10;0.10;;;;;;;9.22;56.36;100740.03;4465148;31;33657;-84
2023/02/20 09:23:57;;;;;;;0.45;0.45;;;;;;;9.08;57.21;100753.50;4476140;31;34031;-85
2023/02/20 09:26:25;;;;;;;0.20;0.20;;;;;;;9.30;57.10;100753.88;4466030;31;32549;-84
2023/02/20 09:28:52;;;;;;;0.20;0.20;;;;;;;9.42;56.80;100758.84;4464263;31;33655;-84
2023/02/20 09:31:20;;;;;;;0.20;0.20;;;;;;;9.41;57.43;100757.12;4488149;31;33270;-84
2023/02/20 09:33:48;;;;;;;0.80;0.43;;;;;;;9.86;55.71;100743.69;4470333;32;32205;-85
2023/02/20 09:36:18;;;;;;;0.00;0.00;;;;;;;9.82;55.56;100741.19;4483650;31;33220;-84
2023/02/20 09:38:46;;;;;;;1.20;1.15;;;;;;;9.89;54.28;100738.34;4485276;31;33710;-84
2023/02/20 09:41:38;;;;;;;0.30;0.30;;;;;;;10.23;53.97;100733.03;4475728;31;33623;-84
2023/02/20 09:44:14;;;;;;;0.10;0.10;;;;;;;10.39;54.05;100741.44;4489586;31;34451;-84
2023/02/20 09:46:44;;;;;;;0.30;0.30;;;;;;;10.59;52.62;100737.38;4464506;31;33045;-84
2023/02/20 09:49:13;;;;;;;0.47;0.47;;;;;;;10.50;52.81;100735.87;4484247;31;32697;-85
2023/02/20 09:51:45;;;;;;;0.45;0.45;;;;;;;10.41;52.48;100747.56;4471504;31;32168;-84
2023/02/20 09:54:21;;;;;;;0.73;0.73;;;;;;;10.19;53.99;100722.63;4486580;31;32743;-84
2023/02/20 09:56:51;;;;;;;0.00;0.00;;;;;;;10.42;54.39;100711.44;4469373;31;31204;-84
2023/02/20 09:59:32;;;;;;;0.55;0.55;;;;;;;10.51;53.95;100714.69;4470241;31;33260;-85
2023/02/20 10:02:14;;;;;;;0.03;0.03;;;;;;;10.77;53.71;100715.69;4461069;31;32726;-84
2023/02/20 10:04:46;;;;;;;0.00;0.00;;;;;;;10.44;53.96;100715.78;4462761;31;32776;-84
2023/02/20 10:07:30;;;;;;;0.35;0.35;;;;;;;9.76;55.87;100715.84;4463165;31;32217;-84
2023/02/20 10:09:59;;;;;;;0.00;0.00;;;;;;;9.94;56.43;100704.81;4471994;31;34246;-85
2023/02/20 10:12:33;;;;;;;0.05;0.05;;;;;;;10.75;56.62;100691.09;4474054;31;32988;-84
2023/02/20 10:15:32;;;;;;;1.48;0.28;;;;;;;11.08;55.75;100686.56;4485750;31;33634;-85
2023/02/20 10:18:38;;;;;;;0.00;0.00;;;;;;;11.66;53.83;100683.78;4476860;31;31451;-84
2023/02/20 10:21:09;;;;;;;0.73;0.73;;;;;;;11.60;53.93;100673.41;4464356;31;33614;-85
2023/02/20 10:23:52;;;;;;;0.20;0.20;;;;;;;11.99;53.48;100677.34;4483707;31;34739;-84
2023/02/20 10:26:34;;;;;;;0.68;0.32;;;;;;;12.36;51.64;100654.84;4474661;31;36073;-83
2023/02/20 10:29:15;;;;;;;0.10;0.10;;;;;;;12.34;53.00;100651.34;4482440;31;33252;-83
2023/02/20 10:31:45;;;;;;;0.10;0.10;;;;;;;12.76;50.44;100634.75;4474610;31;32861;-84
2023/02/20 10:35:03;;;;;;;0.30;0.30;;;;;;;12.49;51.09;100640.22;4482480;31;33656;-83
2023/02/20 10:37:38;;;;;;;0.10;0.10;;;;;;;12.69;50.73;100646.53;4482907;31;36032;-83
2023/02/20 10:40:19;;;;;;;0.52;0.52;;;;;;;12.62;50.34;100639.72;4477275;31;34075;-84
2023/02/20 10:42:54;;;;;;;1.77;0.35;;;;;;;12.16;52.01;100647.63;4463244;31;32745;-82
2023/02/20 10:45:31;;;;;;;0.00;0.00;;;;;;;12.76;50.91;100632.09;4472244;31;33593;-82
2023/02/20 10:48:06;;;;;;;0.17;0.17;;;;;;;12.57;51.12;100627.50;4469908;31;34516;-82
2023/02/20 10:50:48;;;;;;;0.05;0.05;;;;;;;12.81;51.28;100636.28;4474123;31;33700;-83
2023/02/20 10:53:49;;;;;;;0.20;0.20;;;;;;;12.55;51.45;100628.50;4481564;31;33668;-82
2023/02/20 10:56:29;;;;;;;1.58;1.17;;;;;;;12.69;51.27;100625.31;4489213;31;32437;-82
2023/02/20 10:59:16;;;;;;;0.00;0.00;;;;;;;13.32;50.86;100613.06;4469149;31;31721;-83
2023/02/20 11:01:46;;;;;;;1.45;0.75;;;;;;;13.07;50.77;100600.78;4482816;31;31468;-82
2023/02/20 11:04:28;;;;;;;0.45;0.45;;;;;;;13.11;50.45;100606.84;4471238;31;33979;-82
2023/02/20 11:07:06;;;;;;;0.37;0.37;;;;;;;13.14;50.77;100592.56;4472669;31;34567;-83
2023/02/20 11:09:34;;;;;;;0.25;0.25;;;;;;;13.48;50.35;100584.97;4465721;31;35050;-82
2023/02/20 11:12:02;;;;;;;0.10;0.10;;;;;;;13.73;49.76;100583.88;4463484;31;29978;-83
2023/02/20 11:14:42;;;;;;;0.00;0.00;;;;;;;12.99;49.79;100581.66;4485202;31;32966;-83
2023/02/20 11:17:18;;;;;;;0.32;0.32;;;;;;;13.12;50.69;100573.22;4482106;31;32135;-83
2023/02/20 11:19:46;;;;;;;0.30;0.30;;;;;;;13.90;48.75;100552.13;4463669;31;33537;-83
2023/02/20 11:22:15;;;;;;;0.50;0.47;;;;;;;13.72;49.61;100544.97;4469974;31;32703;-82
2023/02/20 11:24:44;;;;;;;0.03;0.03;;;;;;;13.73;48.51;100541.41;4469732;31;33910;-82
2023/02/20 11:27:16;;;;;;;0.75;0.60;;;;;;;13.42;49.31;100537.44;4481874;31;34530;-83
2023/02/20 11:29:53;;;;;;;;;;;;;;;14.36;47.79;100531.41;4488787;31;32157;-83
2023/02/20 11:32:27;;;;;;;0.00;0.00;;;;;;;14.76;46.86;100521.50;4486320;31;32549;-83
2023/02/20 11:35:26;;;;;;;0.00;0.00;;;;;;;14.58;46.35;100531.28;4481358;31;34102;-83
2023/02/20 11:38:18;;;;;;;2.45;1.08;;;;;;;14.86;46.43;100525.47;4468344;31;32271;-83
2023/02/20 11:41:01;;;;;;;0.45;0.45;;;;;;;14.84;46.27;100517.53;4474737;31;32659;-83
2023/02/20 11:43:34;;;;;;;0.55;0.50;;;;;;;14.75;45.82;100520.66;4482488;31;31886;-83
2023/02/20 11:46:28;;;;;;;0.43;0.30;;;;;;;14.90;45.58;100510.19;4481987;31;33861;-83
2023/02/20 11:49:07;;;;;;;3.40;0.98;;;;;;;15.34;44.96;100497.28;4476259;31;32571;-83
2023/02/20 11:51:40;;;;;;;0.28;0.28;;;;;;;15.34;45.75;100486.66;4469538;31;33028;-83
2023/02/20 11:54:15;;;;;;;1.85;0.20;;;;;;;15.56;44.30;100481.88;4472568;31;33938;-82
2023/02/20 11:57:05;;;;;;;0.70;0.43;;;;;;;15.52;43.94;100474.16;4486872;31;32827;-83
2023/02/20 11:59:33;;;;;;;0.30;0.25;;;;;;;14.83;44.49;100485.72;4473971;31;34841;-83
2023/02/20 12:02:10;;;;;;;1.10;0.88;;;;;;;15.54;43.45;100466.97;4483151;31;34455;-82
2023/02/20 12:04:38;;;;;;;0.50;0.40;;;;;;;15.47;42.52;100462.88;4484707;31;33311;-86
2023/02/20 12:07:26;;;;;;;0.10;0.10;;;;;;;15.23;43.36;100459.72;4471181;31;33521;-85
2023/02/20 12:10:04;;;;;;;0.00;0.00;;;;;;;15.36;42.90;100439.53;4465100;31;33093;-85
2023/02/20 12:12:32;;;;;;;0.50;0.50;;;;;;;15.79;42.08;100431.91;4473732;32;33273;-85